Time;durP1;ratioP1;P1;durP2;ratioP2;P2;SDS_P1;SDS_P2;PMS_P1;PMS_P2;Temp;Humidity;BMP_temperature;BMP_pressure;BME280_temperature;BME280_humidity;BME280_pressure;Samples;Min_cycle;Max_cycle;Signal;HPM_P1;HPM_P2
2021/03/19 00:02:09;;;;;;;3.35;2.15;;;8.60;74.10;;;;;;5027117;28;20048;-84
2021/03/19 00:04:35;;;;;;;3.00;2.15;;;8.60;74.10;;;;;;5036311;28;20020;-84
2021/03/19 00:07:01;;;;;;;3.78;2.20;;;8.60;74.10;;;;;;5047185;28;20037;-82
2021/03/19 00:09:27;;;;;;;2.60;2.10;;;8.60;74.10;;;;;;5018109;28;20054;-82
2021/03/19 00:11:53;;;;;;;2.58;2.05;;;8.50;74.10;;;;;;5038140;28;20048;-82
2021/03/19 00:14:19;;;;;;;2.88;2.30;;;8.50;74.10;;;;;;5064671;28;20097;-82
2021/03/19 00:16:45;;;;;;;3.65;2.15;;;8.50;74.20;;;;;;5055137;28;20028;-81
2021/03/19 00:19:11;;;;;;;3.13;2.10;;;8.50;74.20;;;;;;5055263;28;20081;-82
2021/03/19 00:21:38;;;;;;;2.97;2.20;;;8.50;74.30;;;;;;5065473;28;20040;-82
2021/03/19 00:24:06;;;;;;;3.50;2.47;;;8.40;74.20;;;;;;5028886;28;20445;-82
2021/03/19 00:26:31;;;;;;;2.22;1.90;;;8.40;74.20;;;;;;5058088;28;20021;-84
2021/03/19 00:28:57;;;;;;;2.83;2.00;;;8.40;74.20;;;;;;5071786;28;20542;-84
2021/03/19 00:31:23;;;;;;;2.47;2.10;;;8.30;74.20;;;;;;5054235;28;20438;-84
2021/03/19 00:33:49;;;;;;;3.20;2.20;;;8.30;74.20;;;;;;5038489;28;20376;-85
2021/03/19 00:36:15;;;;;;;4.13;2.30;;;8.30;74.20;;;;;;5054866;28;20453;-84
2021/03/19 00:38:40;;;;;;;2.20;2.00;;;8.30;74.20;;;;;;5052110;28;20037;-84
2021/03/19 00:41:06;;;;;;;2.70;2.30;;;8.30;74.30;;;;;;5054982;28;20024;-84
2021/03/19 00:43:32;;;;;;;3.55;2.42;;;8.20;74.20;;;;;;5055376;28;20033;-82
2021/03/19 00:45:58;;;;;;;3.50;2.38;;;8.20;74.20;;;;;;5055003;28;20132;-82
2021/03/19 00:48:24;;;;;;;2.80;2.13;;;8.20;74.20;;;;;;5048565;28;20083;-85
2021/03/19 00:50:50;;;;;;;2.67;2.08;;;8.20;74.20;;;;;;5054291;28;20033;-84
2021/03/19 00:53:16;;;;;;;2.42;2.05;;;8.10;74.20;;;;;;5051485;28;20124;-84
2021/03/19 00:55:42;;;;;;;3.05;2.40;;;8.10;74.20;;;;;;5052714;28;20135;-85
2021/03/19 00:58:08;;;;;;;3.15;2.42;;;8.10;74.20;;;;;;5063475;28;20070;-82
2021/03/19 01:00:35;;;;;;;3.13;2.38;;;8.00;74.10;;;;;;5071306;28;20051;-82
2021/03/19 01:03:03;;;;;;;3.03;2.50;;;8.00;74.20;;;;;;5070707;28;20081;-81
2021/03/19 01:05:36;;;;;;;3.25;2.45;;;8.00;74.20;;;;;;5070448;28;20020;-82
2021/03/19 01:08:05;;;;;;;3.33;2.33;;;8.00;74.30;;;;;;5048353;28;20040;-84
2021/03/19 01:10:37;;;;;;;3.60;2.28;;;8.00;74.20;;;;;;5054906;28;20128;-83
2021/03/19 01:13:03;;;;;;;2.97;2.35;;;8.00;74.30;;;;;;5052511;28;20029;-82
2021/03/19 01:15:30;;;;;;;3.10;2.40;;;7.90;74.20;;;;;;5046990;28;20397;-83
2021/03/19 01:17:56;;;;;;;2.33;2.10;;;7.90;74.20;;;;;;5048987;28;20064;-83
2021/03/19 01:20:24;;;;;;;3.95;3.00;;;7.90;74.20;;;;;;5042354;28;20033;-82
2021/03/19 01:22:50;;;;;;;3.17;2.40;;;7.80;74.20;;;;;;5043709;28;20040;-85
2021/03/19 01:25:18;;;;;;;3.45;2.40;;;7.80;74.20;;;;;;5058202;28;20385;-82
2021/03/19 01:27:45;;;;;;;3.22;2.53;;;7.80;74.20;;;;;;5058134;28;20425;-83
2021/03/19 01:30:17;;;;;;;2.53;2.33;;;7.80;74.20;;;;;;5058199;28;20093;-83
2021/03/19 01:32:45;;;;;;;3.95;2.58;;;7.70;74.20;;;;;;5057270;28;20358;-82
2021/03/19 01:35:13;;;;;;;3.90;2.47;;;7.70;74.20;;;;;;5074762;28;20024;-83
2021/03/19 01:37:39;;;;;;;3.75;2.60;;;7.70;74.20;;;;;;5061303;28;20055;-83
2021/03/19 01:40:11;;;;;;;3.65;2.95;;;7.70;74.20;;;;;;5058375;28;20044;-82
2021/03/19 01:43:00;;;;;;;3.50;2.50;;;7.60;74.20;;;;;;5055862;28;20020;-83
2021/03/19 01:46:03;;;;;;;3.35;2.55;;;7.60;74.20;;;;;;5060120;28;20024;-84
2021/03/19 01:49:06;;;;;;;4.05;3.00;;;7.60;74.30;;;;;;5064240;28;20139;-82
2021/03/19 01:52:10;;;;;;;2.67;2.28;;;7.60;74.30;;;;;;5054232;28;20036;-82
2021/03/19 01:55:13;;;;;;;3.67;2.55;;;7.50;74.30;;;;;;5075058;28;20100;-83
2021/03/19 01:58:17;;;;;;;4.60;2.95;;;7.50;74.40;;;;;;5058678;28;20032;-82
2021/03/19 02:01:20;;;;;;;3.47;2.72;;;7.40;74.30;;;;;;5054312;28;20029;-83
2021/03/19 02:04:23;;;;;;;3.97;2.92;;;7.40;74.40;;;;;;5056189;28;20052;-82
2021/03/19 02:07:27;;;;;;;2.97;2.50;;;7.40;74.40;;;;;;5045941;28;20028;-83
2021/03/19 02:10:30;;;;;;;4.03;2.85;;;7.30;74.40;;;;;;5073092;28;20136;-83
2021/03/19 02:13:33;;;;;;;4.32;2.78;;;7.30;74.40;;;;;;5059942;28;20382;-82
2021/03/19 02:16:37;;;;;;;4.10;2.83;;;7.30;74.50;;;;;;5060600;28;20025;-83
2021/03/19 02:19:40;;;;;;;4.00;2.75;;;7.20;74.50;;;;;;5073482;28;20063;-82
2021/03/19 02:22:43;;;;;;;4.82;3.40;;;7.20;74.50;;;;;;5053501;28;20025;-83
2021/03/19 02:25:47;;;;;;;4.03;3.03;;;7.20;74.50;;;;;;5069053;28;20082;-83
2021/03/19 02:28:50;;;;;;;4.00;2.92;;;7.10;74.50;;;;;;5061560;28;20029;-82
2021/03/19 02:31:16;;;;;;;4.05;3.47;;;7.10;74.50;;;;;;5045262;28;20469;-82
2021/03/19 02:33:50;;;;;;;4.78;3.13;;;7.10;74.40;;;;;;5057034;28;20079;-83
2021/03/19 02:36:22;;;;;;;3.97;3.30;;;7.10;74.50;;;;;;5054169;28;20067;-86
2021/03/19 02:38:49;;;;;;;4.60;3.20;;;7.10;74.50;;;;;;5068671;28;20124;-83
2021/03/19 02:41:15;;;;;;;5.22;3.50;;;7.10;74.50;;;;;;5054874;28;20020;-82
2021/03/19 02:43:41;;;;;;;4.70;3.50;;;7.10;74.50;;;;;;5053549;28;20087;-84
2021/03/19 02:46:06;;;;;;;4.80;3.58;;;7.00;74.50;;;;;;5056240;28;20354;-83
2021/03/19 02:48:32;;;;;;;4.57;3.38;;;7.00;74.50;;;;;;5073467;28;20029;-83
2021/03/19 02:50:58;;;;;;;4.53;3.30;;;7.00;74.50;;;;;;5073031;28;20056;-83
2021/03/19 02:53:30;;;;;;;4.82;3.38;;;7.00;74.50;;;;;;5028198;28;20033;-82
2021/03/19 02:55:58;;;;;;;4.85;3.45;;;6.90;74.50;;;;;;5052950;28;20096;-83
2021/03/19 02:58:24;;;;;;;5.03;3.15;;;6.90;74.40;;;;;;5061987;28;20489;-82
2021/03/19 03:00:50;;;;;;;4.75;3.53;;;6.90;74.50;;;;;;5054728;28;20752;-83
2021/03/19 03:03:17;;;;;;;4.10;3.00;;;6.90;74.50;;;;;;5053659;28;20078;-83
2021/03/19 03:05:43;;;;;;;5.53;3.50;;;6.90;74.50;;;;;;5055648;28;20067;-83
2021/03/19 03:08:15;;;;;;;5.07;3.50;;;6.90;74.50;;;;;;5056406;28;20044;-83
2021/03/19 03:10:42;;;;;;;5.28;3.63;;;6.90;74.60;;;;;;5066445;28;20131;-83
2021/03/19 03:13:09;;;;;;;3.88;3.15;;;6.80;74.40;;;;;;5056336;28;20044;-83
2021/03/19 03:15:35;;;;;;;4.43;3.20;;;6.80;74.40;;;;;;5072778;28;20051;-82
2021/03/19 03:18:01;;;;;;;5.40;3.63;;;6.80;74.40;;;;;;5043288;28;20029;-82
2021/03/19 03:20:40;;;;;;;4.00;2.95;;;6.80;74.50;;;;;;5064921;28;20037;-83
2021/03/19 03:23:07;;;;;;;5.10;3.50;;;6.80;74.60;;;;;;5055211;28;20149;-84
2021/03/19 03:25:33;;;;;;;5.07;3.78;;;6.70;74.40;;;;;;5072742;28;20576;-83
2021/03/19 03:27:59;;;;;;;4.55;3.50;;;6.80;74.60;;;;;;5072749;28;20432;-82
2021/03/19 03:30:30;;;;;;;5.05;3.47;;;6.70;74.50;;;;;;5072728;28;20032;-83
2021/03/19 03:32:57;;;;;;;4.55;2.92;;;6.70;74.50;;;;;;5071440;28;20546;-82
2021/03/19 03:35:24;;;;;;;4.32;3.30;;;6.70;74.50;;;;;;5060941;28;20025;-86
2021/03/19 03:37:51;;;;;;;3.75;2.97;;;6.70;74.60;;;;;;5061055;28;20477;-82
2021/03/19 03:40:42;;;;;;;4.90;3.33;;;6.60;74.50;;;;;;5055940;28;20029;-83
2021/03/19 03:43:10;;;;;;;4.13;3.20;;;6.60;74.50;;;;;;5057004;28;20048;-82
2021/03/19 03:45:36;;;;;;;5.13;3.67;;;6.60;74.50;;;;;;5052742;28;20048;-83
2021/03/19 03:48:02;;;;;;;5.20;3.47;;;6.60;74.50;;;;;;5038429;28;20064;-82
2021/03/19 03:50:29;;;;;;;4.07;3.20;;;6.60;74.60;;;;;;5052234;28;20025;-83
2021/03/19 03:52:55;;;;;;;4.30;3.25;;;6.50;74.50;;;;;;5055234;28;20028;-83
2021/03/19 03:55:21;;;;;;;5.20;3.60;;;6.50;75.20;;;;;;5025487;28;20469;-82
2021/03/19 03:57:47;;;;;;;4.20;3.05;;;6.50;74.50;;;;;;5041085;28;20039;-83
2021/03/19 04:00:16;;;;;;;4.22;3.25;;;6.50;74.60;;;;;;5051608;28;20107;-81
2021/03/19 04:02:42;;;;;;;5.13;3.25;;;6.50;74.60;;;;;;5069992;28;20063;-83
2021/03/19 04:05:10;;;;;;;4.78;3.45;;;6.50;74.60;;;;;;5018741;28;20443;-82
2021/03/19 04:07:36;;;;;;;4.60;3.47;;;6.40;74.50;;;;;;5044040;28;20047;-82
2021/03/19 04:10:04;;;;;;;4.80;3.15;;;6.40;74.50;;;;;;5046280;28;20123;-82
2021/03/19 04:12:29;;;;;;;4.72;3.40;;;6.40;74.50;;;;;;5042452;28;20178;-82
2021/03/19 04:14:55;;;;;;;5.30;3.28;;;6.40;74.60;;;;;;5066488;28;20108;-82
2021/03/19 04:17:33;;;;;;;4.22;3.10;;;6.40;74.60;;;;;;5022393;28;20039;-82
2021/03/19 04:20:00;;;;;;;4.93;3.70;;;6.30;74.60;;;;;;5055699;28;20457;-81
2021/03/19 04:22:27;;;;;;;4.63;3.70;;;6.30;74.60;;;;;;5052097;28;20115;-82
2021/03/19 04:24:54;;;;;;;4.82;3.55;;;6.30;74.50;;;;;;5037248;28;20168;-82
2021/03/19 04:27:28;;;;;;;5.35;3.65;;;6.30;74.60;;;;;;5069505;28;20085;-81
2021/03/19 04:29:55;;;;;;;4.43;3.10;;;6.30;74.60;;;;;;5071542;28;20040;-82
2021/03/19 04:32:22;;;;;;;4.38;3.40;;;6.20;75.10;;;;;;5037854;28;20521;-83
2021/03/19 04:34:47;;;;;;;5.03;3.53;;;6.20;74.60;;;;;;5062634;28;20072;-82
2021/03/19 04:37:13;;;;;;;4.07;3.33;;;6.20;74.60;;;;;;5050051;28;20106;-83
2021/03/19 04:39:43;;;;;;;5.35;3.55;;;6.20;74.60;;;;;;5022305;28;20036;-82
2021/03/19 04:42:11;;;;;;;4.22;2.90;;;6.20;74.60;;;;;;5055116;28;20035;-82
2021/03/19 04:44:40;;;;;;;3.95;3.25;;;6.20;74.60;;;;;;5054488;28;20024;-83
2021/03/19 04:47:06;;;;;;;5.05;3.40;;;6.10;74.60;;;;;;5070100;28;20029;-82
2021/03/19 04:49:33;;;;;;;4.50;3.30;;;6.10;75.20;;;;;;5069696;28;20029;-85
2021/03/19 04:52:00;;;;;;;4.22;2.97;;;6.10;74.60;;;;;;5054768;28;20236;-82
2021/03/19 04:54:27;;;;;;;3.55;2.85;;;6.10;74.60;;;;;;5069700;28;20037;-82
2021/03/19 04:56:52;;;;;;;4.78;3.20;;;6.10;74.60;;;;;;5036375;28;20517;-82
2021/03/19 04:59:19;;;;;;;4.72;3.25;;;6.00;74.60;;;;;;5073875;28;20086;-83
2021/03/19 05:01:57;;;;;;;5.60;3.60;;;6.00;74.60;;;;;;5056275;28;20035;-80
2021/03/19 05:04:23;;;;;;;4.15;3.05;;;6.00;74.60;;;;;;5060099;28;20028;-80
2021/03/19 05:06:52;;;;;;;5.05;3.33;;;6.00;74.60;;;;;;5043656;28;20055;-82
2021/03/19 05:09:19;;;;;;;4.03;3.08;;;6.00;74.60;;;;;;5077327;28;20052;-82
2021/03/19 05:11:45;;;;;;;3.97;2.88;;;6.00;74.60;;;;;;5054241;28;20051;-83
2021/03/19 05:14:11;;;;;;;4.32;3.05;;;5.90;74.50;;;;;;5056152;28;20384;-82
2021/03/19 05:16:37;;;;;;;5.13;3.25;;;5.90;74.60;;;;;;5072211;28;20028;-83
2021/03/19 05:19:03;;;;;;;5.65;3.40;;;5.90;74.60;;;;;;5058802;28;20036;-82
2021/03/19 05:21:29;;;;;;;3.85;3.10;;;5.90;74.60;;;;;;5073296;28;20033;-83
2021/03/19 05:23:55;;;;;;;4.03;3.00;;;5.90;74.60;;;;;;5045924;28;20376;-81
2021/03/19 05:26:21;;;;;;;4.95;3.15;;;5.90;74.60;;;;;;5038952;28;20029;-82
2021/03/19 05:28:47;;;;;;;4.65;3.30;;;5.90;74.60;;;;;;5057144;28;20427;-81
2021/03/19 05:31:13;;;;;;;4.32;3.05;;;5.80;74.50;;;;;;5038052;28;20497;-81
2021/03/19 05:33:48;;;;;;;4.20;2.90;;;5.80;74.60;;;;;;5074731;28;20028;-80
2021/03/19 05:36:17;;;;;;;3.53;2.75;;;5.80;74.60;;;;;;5072958;28;20024;-80
2021/03/19 05:38:43;;;;;;;4.57;3.40;;;5.80;74.60;;;;;;5069038;28;20029;-80
2021/03/19 05:41:11;;;;;;;4.93;3.28;;;5.70;74.50;;;;;;5073363;28;20020;-80
2021/03/19 05:43:45;;;;;;;4.60;3.25;;;5.70;74.60;;;;;;5062765;28;20017;-79
2021/03/19 05:46:33;;;;;;;4.67;3.47;;;5.70;74.60;;;;;;5055103;28;20032;-79
2021/03/19 05:49:21;;;;;;;4.88;3.20;;;5.70;74.60;;;;;;5071792;28;20449;-81
2021/03/19 05:51:50;;;;;;;3.65;2.58;;;5.70;74.50;;;;;;5059744;28;20127;-81
2021/03/19 05:54:24;;;;;;;4.75;2.88;;;5.70;74.60;;;;;;5057203;28;20024;-80
2021/03/19 05:57:08;;;;;;;5.53;3.13;;;5.60;74.60;;;;;;5073435;28;20031;-81
2021/03/19 05:59:36;;;;;;;4.03;3.22;;;5.60;74.60;;;;;;5061314;28;20037;-81
2021/03/19 06:02:15;;;;;;;4.53;3.20;;;5.60;74.60;;;;;;5041984;28;20021;-80
2021/03/19 06:04:41;;;;;;;3.63;2.85;;;5.60;74.60;;;;;;5067637;28;20504;-82
2021/03/19 06:07:06;;;;;;;3.83;2.80;;;5.60;74.60;;;;;;5058044;28;20029;-82
2021/03/19 06:09:41;;;;;;;4.00;2.70;;;5.50;74.60;;;;;;5049379;28;20060;-83
2021/03/19 06:12:15;;;;;;;3.85;2.78;;;5.50;74.60;;;;;;5053175;28;20017;-81
2021/03/19 06:14:56;;;;;;;4.05;2.85;;;5.50;74.60;;;;;;5068667;28;20025;-91
2021/03/19 06:17:33;;;;;;;3.70;2.58;;;5.50;74.60;;;;;;5070313;28;20029;-82
2021/03/19 06:20:02;;;;;;;4.18;2.97;;;5.50;74.60;;;;;;5070638;28;20032;-81
2021/03/19 06:22:43;;;;;;;3.72;2.80;;;5.40;74.60;;;;;;5073983;28;20021;-81
2021/03/19 06:25:31;;;;;;;4.30;2.92;;;5.50;74.70;;;;;;5071582;28;20475;-80
2021/03/19 06:28:24;;;;;;;3.65;2.58;;;5.40;74.80;;;;;;5065265;28;20033;-81
2021/03/19 06:30:51;;;;;;;3.10;2.67;;;5.40;74.80;;;;;;5069329;28;20038;-81
2021/03/19 06:33:25;;;;;;;3.80;2.70;;;5.40;74.60;;;;;;5055133;28;20086;-80
2021/03/19 06:36:19;;;;;;;3.95;2.63;;;5.40;74.80;;;;;;5052529;28;20029;-81
2021/03/19 06:38:50;;;;;;;4.47;2.90;;;5.40;74.80;;;;;;5066635;28;20043;-81
2021/03/19 06:42:00;;;;;;;4.00;2.90;;;5.40;74.70;;;;;;5056691;28;20123;-80
2021/03/19 06:44:25;;;;;;;3.97;2.80;;;5.30;74.80;;;;;;5029965;28;20068;-81
2021/03/19 06:46:52;;;;;;;4.97;2.97;;;5.40;74.70;;;;;;5039604;28;20467;-82
2021/03/19 06:49:20;;;;;;;3.63;2.45;;;5.30;74.70;;;;;;5070460;28;20033;-81
2021/03/19 06:51:48;;;;;;;3.85;3.00;;;5.30;74.80;;;;;;5061615;28;20044;-82
2021/03/19 06:54:19;;;;;;;4.55;2.95;;;5.30;74.80;;;;;;5055705;28;20460;-81
2021/03/19 06:57:09;;;;;;;4.05;3.22;;;5.30;74.80;;;;;;5062400;28;20025;-82
2021/03/19 06:59:51;;;;;;;4.22;2.92;;;5.30;74.90;;;;;;5069665;28;20040;-82
2021/03/19 07:02:32;;;;;;;4.00;3.15;;;5.30;74.80;;;;;;5047429;28;20030;-83
2021/03/19 07:05:23;;;;;;;4.20;2.88;;;5.30;74.90;;;;;;5060309;28;20473;-83
2021/03/19 07:08:03;;;;;;;4.90;2.95;;;5.30;74.90;;;;;;5051659;28;20061;-82
2021/03/19 07:10:38;;;;;;;4.05;2.80;;;5.30;74.80;;;;;;5055723;28;20044;-82
2021/03/19 07:13:22;;;;;;;4.07;2.80;;;5.30;74.80;;;;;;5068218;28;20040;-82
2021/03/19 07:16:00;;;;;;;4.53;2.95;;;5.30;74.80;;;;;;5047117;28;20116;-81
2021/03/19 07:18:40;;;;;;;4.32;2.63;;;5.30;74.90;;;;;;5051685;28;20377;-81
2021/03/19 07:21:09;;;;;;;3.50;2.55;;;5.20;74.90;;;;;;5044809;28;20021;-81
2021/03/19 07:23:51;;;;;;;3.90;2.78;;;5.20;74.80;;;;;;5071006;28;20442;-82
2021/03/19 07:26:26;;;;;;;3.72;2.72;;;5.30;74.90;;;;;;5067722;28;20036;-81
2021/03/19 07:29:13;;;;;;;3.58;2.60;;;5.30;74.90;;;;;;5043231;28;20580;-82
2021/03/19 07:32:17;;;;;;;3.10;2.65;;;5.30;74.90;;;;;;5054823;28;20032;-82
2021/03/19 07:35:09;;;;;;;4.25;3.08;;;5.30;74.90;;;;;;5044530;28;20074;-81
2021/03/19 07:38:10;;;;;;;3.20;2.40;;;5.20;74.90;;;;;;5068184;28;20079;-81
2021/03/19 07:41:04;;;;;;;2.92;2.42;;;5.20;74.80;;;;;;5018077;28;20075;-83
2021/03/19 07:43:48;;;;;;;3.67;2.65;;;5.20;74.90;;;;;;5070807;28;20108;-82
2021/03/19 07:46:25;;;;;;;4.05;2.63;;;5.20;74.80;;;;;;5072051;28;20107;-82
2021/03/19 07:49:10;;;;;;;3.58;2.50;;;5.30;74.90;;;;;;5059893;28;20037;-83
2021/03/19 07:51:54;;;;;;;4.35;2.90;;;5.20;74.90;;;;;;5052379;28;20036;-82
2021/03/19 07:54:51;;;;;;;3.50;2.57;;;5.30;75.00;;;;;;5067713;28;20452;-82
2021/03/19 07:57:37;;;;;;;2.97;2.42;;;5.30;74.90;;;;;;5065006;28;20044;-82
2021/03/19 08:00:37;;;;;;;3.75;2.50;;;5.30;74.80;;;;;;5071933;28;20480;-83
2021/03/19 08:03:27;;;;;;;3.15;2.13;;;5.30;75.00;;;;;;5068401;28;20025;-81
2021/03/19 08:05:54;;;;;;;2.90;2.30;;;5.30;74.80;;;;;;5044297;28;20033;-81
2021/03/19 08:08:53;;;;;;;2.70;2.42;;;5.30;74.80;;;;;;5065516;28;20036;-84
2021/03/19 08:11:31;;;;;;;4.22;3.00;;;5.30;75.00;;;;;;5039090;28;20051;-83
2021/03/19 08:14:25;;;;;;;3.53;2.50;;;5.30;74.90;;;;;;5044408;28;20035;-83
2021/03/19 08:17:09;;;;;;;3.38;2.42;;;5.30;74.90;;;;;;5070922;28;20020;-84
2021/03/19 08:19:52;;;;;;;3.00;2.45;;;5.30;74.90;;;;;;5037813;28;20065;-85
2021/03/19 08:22:33;;;;;;;3.45;2.40;;;5.30;74.80;;;;;;5072269;28;20538;-84
2021/03/19 08:25:09;;;;;;;2.72;2.22;;;5.30;74.90;;;;;;5054322;28;20029;-78
2021/03/19 08:27:43;;;;;;;2.83;2.28;;;5.30;74.80;;;;;;5045514;28;20025;-82
2021/03/19 08:30:33;;;;;;;2.80;2.22;;;5.30;74.80;;;;;;5035256;28;20053;-82
2021/03/19 08:33:44;;;;;;;3.00;2.30;;;5.30;74.80;;;;;;5045014;28;20028;-82
2021/03/19 08:36:38;;;;;;;2.63;2.05;;;5.30;74.90;;;;;;5071569;28;20029;-82
2021/03/19 08:39:19;;;;;;;3.53;1.98;;;5.40;74.80;;;;;;5071433;28;20032;-82
2021/03/19 08:41:50;;;;;;;2.78;2.03;;;5.40;74.80;;;;;;5070347;28;20021;-83
2021/03/19 08:44:20;;;;;;;2.78;2.22;;;5.40;74.80;;;;;;5054206;28;20059;-83
2021/03/19 08:47:13;;;;;;;3.25;2.38;;;5.40;74.80;;;;;;5063747;28;20032;-82
2021/03/19 08:49:43;;;;;;;3.17;2.33;;;5.40;74.90;;;;;;5054037;28;20385;-81
2021/03/19 08:52:30;;;;;;;3.15;2.25;;;5.50;74.70;;;;;;5060027;28;20517;-82
2021/03/19 08:55:14;;;;;;;3.63;2.30;;;5.50;74.80;;;;;;5052363;28;20048;-83
2021/03/19 08:57:42;;;;;;;3.15;2.20;;;5.50;74.80;;;;;;5057410;28;20025;-86
2021/03/19 09:00:24;;;;;;;2.50;2.30;;;5.50;74.60;;;;;;5066499;28;20025;-87
2021/03/19 09:03:29;;;;;;;2.80;2.10;;;5.50;74.70;;;;;;5053227;28;20029;-85
2021/03/19 09:06:06;;;;;;;3.30;2.40;;;5.50;74.70;;;;;;5064406;28;20029;-85
2021/03/19 09:08:44;;;;;;;3.45;2.22;;;5.60;74.60;;;;;;5055111;28;20438;-85
2021/03/19 09:11:16;;;;;;;2.50;2.03;;;5.60;74.60;;;;;;5049270;28;20481;-84
2021/03/19 09:14:14;;;;;;;2.80;1.88;;;5.70;74.60;;;;;;5071846;28;20218;-86
2021/03/19 09:16:45;;;;;;;3.67;2.38;;;5.70;74.70;;;;;;5015260;28;20041;-84
2021/03/19 09:19:55;;;;;;;2.10;1.90;;;5.70;74.50;;;;;;5072624;28;20126;-84
2021/03/19 09:22:24;;;;;;;2.67;2.22;;;5.70;74.60;;;;;;5054669;28;20465;-84
2021/03/19 09:25:12;;;;;;;2.15;1.90;;;5.90;74.50;;;;;;5071227;28;20024;-84
2021/03/19 09:27:40;;;;;;;2.10;1.77;;;5.90;74.60;;;;;;5041598;28;20318;-84
2021/03/19 09:30:24;;;;;;;2.10;1.90;;;5.90;74.50;;;;;;5042795;28;20029;-84
2021/03/19 09:32:52;;;;;;;2.55;1.98;;;6.00;74.60;;;;;;5051725;28;20124;-83
2021/03/19 09:35:46;;;;;;;2.10;1.90;;;6.00;74.40;;;;;;5064376;28;20100;-86
2021/03/19 09:38:24;;;;;;;2.15;1.95;;;6.10;74.60;;;;;;5067408;28;20505;-84
2021/03/19 09:41:17;;;;;;;2.65;1.85;;;6.20;74.40;;;;;;5072579;28;20029;-84
2021/03/19 09:43:46;;;;;;;2.83;2.13;;;6.20;74.30;;;;;;5070265;28;20086;-83
2021/03/19 09:46:24;;;;;;;2.53;1.73;;;6.30;74.30;;;;;;5057986;28;20380;-84
2021/03/19 09:48:56;;;;;;;3.58;2.00;;;6.40;74.40;;;;;;5062398;28;20044;-84
2021/03/19 09:51:41;;;;;;;2.40;1.98;;;6.40;74.30;;;;;;5070070;28;20079;-84
2021/03/19 09:54:29;;;;;;;2.63;2.20;;;6.50;74.30;;;;;;5069045;28;20032;-84
2021/03/19 09:57:02;;;;;;;2.80;2.05;;;6.60;74.30;;;;;;5074896;28;20453;-85
2021/03/19 09:59:36;;;;;;;3.38;2.33;;;6.70;74.20;;;;;;5060756;28;20064;-84
2021/03/19 10:02:24;;;;;;;2.37;1.90;;;6.70;74.20;;;;;;5075072;28;20033;-84
2021/03/19 10:04:51;;;;;;;3.35;2.00;;;6.80;74.10;;;;;;5074630;28;20465;-83
2021/03/19 10:07:26;;;;;;;2.63;1.98;;;6.90;74.00;;;;;;5064178;28;20473;-85
2021/03/19 10:09:55;;;;;;;2.08;1.75;;;7.00;74.10;;;;;;5024627;28;20059;-84
2021/03/19 10:12:32;;;;;;;2.97;2.28;;;7.10;74.10;;;;;;5044916;28;20119;-83
2021/03/19 10:15:19;;;;;;;2.17;1.85;;;7.20;74.10;;;;;;5072079;28;20049;-84
2021/03/19 10:17:58;;;;;;;2.88;2.28;;;7.30;74.10;;;;;;5057241;28;20051;-83
2021/03/19 10:20:33;;;;;;;2.17;1.90;;;7.30;74.00;;;;;;5033635;28;20032;-81
2021/03/19 10:23:21;;;;;;;2.55;2.10;;;7.40;73.90;;;;;;5068990;28;20052;-83
2021/03/19 10:25:49;;;;;;;2.28;1.80;;;7.50;73.90;;;;;;5060249;28;20121;-82
2021/03/19 10:28:23;;;;;;;3.10;1.95;;;7.60;73.80;;;;;;5057688;28;20508;-85
2021/03/19 10:30:56;;;;;;;3.40;2.30;;;7.70;73.80;;;;;;5054051;28;20028;-85
2021/03/19 10:33:24;;;;;;;3.47;2.70;;;7.80;73.80;;;;;;5072540;28;20469;-85
2021/03/19 10:35:55;;;;;;;4.28;2.30;;;7.90;73.70;;;;;;5074297;28;20104;-84
2021/03/19 10:38:27;;;;;;;3.00;2.50;;;7.90;73.70;;;;;;5053793;28;20116;-84
2021/03/19 10:40:59;;;;;;;2.75;2.10;;;8.10;73.80;;;;;;5056721;28;20028;-86
2021/03/19 10:43:42;;;;;;;2.50;2.00;;;8.20;73.80;;;;;;5073093;28;20033;-86
2021/03/19 10:46:25;;;;;;;2.70;2.25;;;8.20;73.70;;;;;;5057005;28;20044;-86
2021/03/19 10:48:57;;;;;;;4.30;2.20;;;8.40;73.80;;;;;;5052534;28;20111;-84
2021/03/19 10:51:41;;;;;;;3.75;2.30;;;8.40;73.70;;;;;;5078753;28;20234;-85
2021/03/19 10:54:29;;;;;;;3.33;2.55;;;8.50;73.80;;;;;;5056606;28;20127;-85
2021/03/19 10:56:58;;;;;;;4.20;2.50;;;8.60;73.80;;;;;;5065916;28;20096;-85
2021/03/19 10:59:30;;;;;;;3.70;2.70;;;8.70;73.60;;;;;;5055731;28;20028;-85
2021/03/19 11:02:16;;;;;;;4.40;2.53;;;8.80;73.70;;;;;;5064886;28;20032;-86
2021/03/19 11:04:44;;;;;;;3.22;2.20;;;8.90;73.80;;;;;;5053224;28;20064;-86
2021/03/19 11:07:28;;;;;;;3.33;2.65;;;9.00;73.60;;;;;;5064524;28;20021;-87
2021/03/19 11:10:10;;;;;;;3.35;2.55;;;9.10;73.80;;;;;;5053134;28;20056;-86
2021/03/19 11:12:45;;;;;;;2.88;2.25;;;9.20;73.70;;;;;;5048828;28;20067;-86
2021/03/19 11:15:11;;;;;;;3.97;2.40;;;9.30;73.50;;;;;;5068155;28;20032;-86
2021/03/19 11:17:37;;;;;;;3.63;2.70;;;9.40;73.50;;;;;;5036575;28;20082;-86
2021/03/19 11:20:08;;;;;;;3.85;2.53;;;9.40;73.50;;;;;;5053866;28;20028;-86
2021/03/19 11:22:37;;;;;;;3.60;2.50;;;9.50;73.50;;;;;;5068109;28;20021;-87
2021/03/19 11:25:41;;;;;;;3.03;2.10;;;9.60;73.40;;;;;;5066993;28;20017;-87
2021/03/19 11:28:33;;;;;;;2.75;2.30;;;9.70;73.70;;;;;;5066703;28;20036;-86
2021/03/19 11:31:31;;;;;;;3.00;2.17;;;9.90;74.20;;;;;;5056239;28;20070;-85
2021/03/19 11:34:03;;;;;;;3.15;2.15;;;9.90;73.50;;;;;;4992619;28;20483;-85
2021/03/19 11:37:01;;;;;;;4.20;2.67;;;10.00;73.40;;;;;;5036527;28;20025;-85
2021/03/19 11:39:55;;;;;;;2.97;2.40;;;10.10;73.60;;;;;;5071135;28;20165;-88
2021/03/19 11:42:31;;;;;;;3.75;2.10;;;10.20;73.60;;;;;;5063786;28;20033;-87
2021/03/19 11:45:13;;;;;;;3.15;2.10;;;10.30;73.40;;;;;;5048271;28;20017;-85
2021/03/19 11:47:48;;;;;;;2.85;2.30;;;10.30;73.40;;;;;;5042529;28;20124;-84
2021/03/19 11:50:23;;;;;;;2.70;2.08;;;10.40;73.30;;;;;;5071887;28;20072;-85
2021/03/19 11:52:57;;;;;;;3.38;2.40;;;10.50;73.40;;;;;;5060487;28;20078;-86
2021/03/19 11:55:29;;;;;;;3.10;2.33;;;10.50;73.30;;;;;;5063422;28;20036;-83
2021/03/19 11:57:55;;;;;;;2.80;2.22;;;10.60;73.40;;;;;;5067038;28;20476;-84
2021/03/19 12:00:28;;;;;;;3.25;2.42;;;10.70;73.30;;;;;;5071848;28;20017;-81
2021/03/19 12:03:03;;;;;;;2.47;1.90;;;10.80;73.40;;;;;;5059571;28;20047;-87
2021/03/19 12:05:32;;;;;;;3.00;2.10;;;10.80;73.40;;;;;;5071143;28;20063;-86
2021/03/19 12:07:59;;;;;;;4.60;2.10;;;10.90;73.30;;;;;;5055106;28;20021;-86
2021/03/19 12:10:29;;;;;;;3.70;2.20;;;10.90;73.30;;;;;;5071673;28;20074;-86
2021/03/19 12:13:05;;;;;;;2.92;2.20;;;11.00;73.30;;;;;;5053377;28;20025;-87
2021/03/19 12:15:33;;;;;;;2.15;1.92;;;11.10;73.40;;;;;;5072934;28;20067;-87
2021/03/19 12:18:00;;;;;;;2.60;1.80;;;11.10;73.40;;;;;;5055261;28;20064;-86
2021/03/19 12:20:26;;;;;;;2.28;1.80;;;11.10;73.30;;;;;;5068301;28;20035;-89
2021/03/19 12:22:52;;;;;;;2.53;2.00;;;11.20;73.20;;;;;;5065888;28;20032;-85
2021/03/19 12:25:24;;;;;;;3.50;2.00;;;11.20;73.10;;;;;;5052449;28;20017;-86
2021/03/19 12:27:50;;;;;;;2.70;1.90;;;11.20;73.10;;;;;;5046014;28;20025;-86
2021/03/19 12:30:17;;;;;;;2.35;1.83;;;11.30;73.00;;;;;;5071615;28;20036;-87
2021/03/19 12:32:43;;;;;;;3.03;2.10;;;11.30;72.90;;;;;;5050572;28;20031;-87
2021/03/19 12:35:09;;;;;;;1.67;1.58;;;11.40;72.90;;;;;;5047349;28;20029;-86
2021/03/19 12:37:35;;;;;;;2.30;1.90;;;11.40;72.90;;;;;;5036791;28;20074;-87
2021/03/19 12:40:02;;;;;;;1.88;1.50;;;11.40;72.90;;;;;;5045754;28;20037;-87
2021/03/19 12:42:28;;;;;;;2.38;1.80;;;11.50;73.00;;;;;;5054124;28;20458;-87
2021/03/19 12:44:53;;;;;;;2.00;1.50;;;11.50;72.90;;;;;;5019655;28;20032;-87
2021/03/19 12:47:19;;;;;;;1.98;1.70;;;11.60;72.90;;;;;;5066652;28;20032;-88
2021/03/19 12:49:45;;;;;;;1.80;1.55;;;11.60;72.80;;;;;;5055060;28;20039;-88
2021/03/19 12:52:11;;;;;;;1.60;1.50;;;11.60;72.70;;;;;;5072467;28;20423;-88
2021/03/19 12:54:37;;;;;;;1.50;1.40;;;11.70;72.60;;;;;;5044293;28;20029;-87
2021/03/19 12:57:03;;;;;;;2.00;1.80;;;11.70;72.70;;;;;;5039120;28;20056;-88
2021/03/19 12:59:28;;;;;;;2.60;1.67;;;11.70;72.70;;;;;;5069881;28;20062;-88
2021/03/19 13:01:55;;;;;;;2.60;1.58;;;11.80;72.70;;;;;;5060043;28;20052;-87
2021/03/19 13:04:21;;;;;;;2.70;1.90;;;11.80;72.60;;;;;;5042741;28;20029;-89
2021/03/19 13:06:47;;;;;;;2.22;1.55;;;11.90;72.70;;;;;;5065162;28;20029;-89
2021/03/19 13:09:14;;;;;;;1.77;1.50;;;11.90;72.70;;;;;;5064052;28;20055;-87
2021/03/19 13:11:41;;;;;;;1.63;1.50;;;11.90;72.70;;;;;;5055041;28;20040;-88
2021/03/19 13:14:07;;;;;;;2.75;1.60;;;11.90;72.70;;;;;;5055275;28;20039;-87
2021/03/19 13:16:34;;;;;;;2.10;1.70;;;12.00;73.40;;;;;;5054314;28;20036;-86
2021/03/19 13:19:01;;;;;;;1.63;1.40;;;12.00;72.80;;;;;;5070314;28;20472;-86
2021/03/19 13:21:27;;;;;;;1.25;1.17;;;12.00;72.70;;;;;;5056491;28;20033;-88
2021/03/19 13:23:53;;;;;;;1.63;1.50;;;12.10;72.70;;;;;;5058887;28;20107;-87
2021/03/19 13:26:19;;;;;;;1.83;1.40;;;12.10;72.60;;;;;;5059197;28;20116;-87
2021/03/19 13:28:44;;;;;;;2.28;1.63;;;12.10;72.50;;;;;;5058895;28;20036;-87
2021/03/19 13:31:10;;;;;;;1.58;1.40;;;12.10;72.30;;;;;;5052054;28;20560;-87
2021/03/19 13:33:37;;;;;;;2.10;1.45;;;12.20;72.30;;;;;;5048932;28;20060;-86
2021/03/19 13:36:03;;;;;;;1.52;1.38;;;12.20;72.30;;;;;;5036917;28;20057;-85